Time;durP1;ratioP1;P1;durP2;ratioP2;P2;SDS_P1;SDS_P2;PMS_P1;PMS_P2;Temp;Humidity;BMP_temperature;BMP_pressure;BME280_temperature;BME280_humidity;BME280_pressure;Samples;Min_cycle;Max_cycle;Signal;HPM_P1;HPM_P2
2021/09/02 04:00:34;;;;;;;12.93;7.60;;;13.70;99.90;;;;;;6107255;23;20842;-68
2021/09/02 04:03:00;;;;;;;11.87;7.90;;;13.70;99.90;;;;;;6155249;23;20514;-68
2021/09/02 04:05:27;;;;;;;13.17;7.60;;;13.70;99.90;;;;;;6155778;23;20781;-68
2021/09/02 04:07:54;;;;;;;12.97;7.93;;;13.70;99.90;;;;;;6156104;23;20423;-68
2021/09/02 04:10:20;;;;;;;10.07;8.00;;;13.70;99.90;;;;;;6156007;23;20430;-68
2021/09/02 04:12:47;;;;;;;12.20;8.23;;;13.70;99.90;;;;;;6155241;23;20427;-68
2021/09/02 04:15:15;;;;;;;10.63;8.30;;;13.70;99.90;;;;;;6155670;23;20410;-69
2021/09/02 04:17:43;;;;;;;16.03;8.47;;;13.70;99.90;;;;;;6155276;23;20446;-69
2021/09/02 04:20:10;;;;;;;8.70;7.37;;;13.70;99.90;;;;;;6155666;23;20422;-69
2021/09/02 04:22:37;;;;;;;12.60;8.07;;;13.70;99.90;;;;;;6155270;23;20911;-68
2021/09/02 04:25:04;;;;;;;13.47;7.33;;;13.70;99.90;;;;;;6156027;23;20423;-69
2021/09/02 04:27:31;;;;;;;12.10;7.87;;;13.70;99.90;;;;;;6156024;23;20450;-69
2021/09/02 04:29:57;;;;;;;11.00;7.80;;;13.70;99.90;;;;;;6155550;23;20971;-69
2021/09/02 04:32:24;;;;;;;10.47;8.33;;;13.70;99.90;;;;;;6166056;23;20754;-69
2021/09/02 04:34:52;;;;;;;8.67;7.47;;;13.60;99.90;;;;;;6155893;23;20423;-69
2021/09/02 04:37:18;;;;;;;10.53;7.30;;;13.60;99.90;;;;;;6156386;23;20769;-69
2021/09/02 04:39:45;;;;;;;13.20;9.30;;;13.60;99.90;;;;;;6155153;23;20434;-69
2021/09/02 04:42:12;;;;;;;16.17;9.73;;;13.60;99.90;;;;;;6155310;23;20944;-69
2021/09/02 04:44:38;;;;;;;11.17;8.30;;;13.70;99.90;;;;;;6155441;23;20430;-69
2021/09/02 04:47:05;;;;;;;7.70;7.00;;;13.70;99.90;;;;;;6155312;23;20419;-70
2021/09/02 04:49:32;;;;;;;11.70;8.17;;;13.70;99.90;;;;;;6154860;23;20577;-69
2021/09/02 04:52:00;;;;;;;8.87;7.93;;;13.70;99.90;;;;;;6155573;23;20497;-69
2021/09/02 04:54:26;;;;;;;10.57;7.57;;;13.70;99.90;;;;;;6154891;23;20426;-69
2021/09/02 04:56:53;;;;;;;9.73;7.93;;;13.70;99.90;;;;;;6155705;23;20474;-70
2021/09/02 04:59:19;;;;;;;9.60;7.20;;;13.80;99.90;;;;;;6155611;23;20426;-69
2021/09/02 05:01:46;;;;;;;10.60;7.60;;;13.70;99.90;;;;;;6154584;23;20457;-69
2021/09/02 05:04:13;;;;;;;7.77;6.60;;;13.80;99.90;;;;;;6154929;23;20422;-70
2021/09/02 05:06:39;;;;;;;8.70;7.63;;;13.80;99.90;;;;;;6165232;23;20497;-69
2021/09/02 05:09:07;;;;;;;8.33;7.20;;;13.80;99.90;;;;;;6154670;23;20790;-69
2021/09/02 05:11:34;;;;;;;10.27;7.37;;;13.80;99.90;;;;;;6155366;23;20450;-69
2021/09/02 05:14:00;;;;;;;7.60;6.53;;;13.90;99.90;;;;;;6155270;23;20422;-69
2021/09/02 05:16:27;;;;;;;7.40;6.67;;;13.90;99.90;;;;;;6154765;23;20427;-69
2021/09/02 05:18:54;;;;;;;8.73;6.03;;;13.90;99.90;;;;;;6154506;23;20437;-66
2021/09/02 05:21:20;;;;;;;7.13;6.43;;;13.90;99.90;;;;;;6155542;23;20563;-66
2021/09/02 05:23:47;;;;;;;9.07;7.67;;;13.90;99.90;;;;;;6155068;23;20430;-67
2021/09/02 05:26:15;;;;;;;9.37;6.07;;;13.90;99.90;;;;;;6155469;23;20473;-66
2021/09/02 05:28:42;;;;;;;12.73;7.77;;;14.00;99.90;;;;;;6155045;23;20427;-66
2021/09/02 05:31:09;;;;;;;12.87;7.30;;;14.00;99.90;;;;;;6154455;23;20454;-66
2021/09/02 05:33:36;;;;;;;9.80;6.57;;;14.00;99.90;;;;;;6154457;23;20426;-66
2021/09/02 05:36:03;;;;;;;11.50;7.10;;;14.00;99.90;;;;;;6154654;23;20963;-66
2021/09/02 05:38:29;;;;;;;7.70;6.97;;;14.10;99.90;;;;;;6154863;23;20478;-67
2021/09/02 05:40:56;;;;;;;12.03;6.90;;;14.10;99.90;;;;;;6154409;23;20512;-67
2021/09/02 05:43:24;;;;;;;8.40;6.90;;;14.20;99.90;;;;;;6154777;23;20411;-67
2021/09/02 05:45:51;;;;;;;8.50;6.93;;;14.20;99.90;;;;;;6153803;23;20971;-67
2021/09/02 05:48:18;;;;;;;7.97;6.60;;;14.30;99.90;;;;;;6154345;23;20426;-69
2021/09/02 05:50:44;;;;;;;9.60;7.20;;;14.40;99.90;;;;;;6154796;23;20501;-69
2021/09/02 05:53:11;;;;;;;10.37;7.10;;;14.40;99.90;;;;;;6154199;23;20513;-67
2021/09/02 05:55:38;;;;;;;7.30;6.50;;;14.50;99.90;;;;;;6154848;23;20423;-66
2021/09/02 05:58:05;;;;;;;7.97;7.20;;;14.50;99.90;;;;;;6154484;23;20560;-69
2021/09/02 06:00:33;;;;;;;12.07;7.17;;;14.60;99.90;;;;;;6153831;23;20447;-70
2021/09/02 06:03:00;;;;;;;7.70;5.90;;;14.60;99.90;;;;;;6153548;23;20741;-70
2021/09/02 06:05:27;;;;;;;12.10;7.70;;;14.70;99.90;;;;;;6154557;23;20422;-70
2021/09/02 06:07:53;;;;;;;7.63;6.90;;;14.70;99.90;;;;;;6154652;23;20478;-70
2021/09/02 06:10:20;;;;;;;9.60;7.30;;;14.80;99.90;;;;;;6154322;23;20908;-70
2021/09/02 06:12:47;;;;;;;8.07;7.33;;;14.90;99.90;;;;;;6153717;23;20788;-70
2021/09/02 06:15:13;;;;;;;7.83;7.13;;;15.00;99.90;;;;;;6154063;23;20426;-70
2021/09/02 06:17:41;;;;;;;8.03;6.83;;;15.00;99.90;;;;;;6153439;23;20458;-70
2021/09/02 06:20:09;;;;;;;12.73;7.20;;;15.00;99.90;;;;;;6154063;23;20426;-69
2021/09/02 06:22:36;;;;;;;11.63;7.13;;;15.10;99.90;;;;;;6154199;23;20485;-69
2021/09/02 06:25:04;;;;;;;10.50;7.33;;;15.20;99.90;;;;;;6154619;23;20539;-70
2021/09/02 06:27:31;;;;;;;8.60;7.10;;;15.30;99.90;;;;;;6154127;23;20418;-70
2021/09/02 06:29:58;;;;;;;7.90;7.13;;;15.30;99.90;;;;;;6154308;23;20798;-70
2021/09/02 06:32:24;;;;;;;8.03;7.23;;;15.40;99.90;;;;;;6154278;23;20491;-70
2021/09/02 06:34:52;;;;;;;9.13;7.50;;;15.50;99.90;;;;;;6162761;23;20418;-71
2021/09/02 06:37:19;;;;;;;8.60;7.70;;;15.40;99.90;;;;;;6154898;23;20437;-71
2021/09/02 06:39:45;;;;;;;10.40;7.60;;;15.40;99.90;;;;;;6154688;23;20422;-70
2021/09/02 06:42:12;;;;;;;9.73;8.00;;;15.40;99.90;;;;;;6154283;23;21007;-69
2021/09/02 06:44:39;;;;;;;9.53;7.30;;;15.50;99.90;;;;;;6154732;23;20422;-71
2021/09/02 06:47:06;;;;;;;9.63;7.63;;;15.70;99.90;;;;;;6153906;23;20521;-71
2021/09/02 06:49:32;;;;;;;8.10;7.33;;;15.90;99.90;;;;;;6154114;23;20508;-72
2021/09/02 06:52:00;;;;;;;9.03;6.77;;;16.00;99.90;;;;;;6153935;23;20450;-70
2021/09/02 06:54:27;;;;;;;9.03;7.80;;;16.20;99.90;;;;;;6154384;23;20426;-69
2021/09/02 06:56:54;;;;;;;8.03;6.90;;;16.30;99.90;;;;;;6154471;23;20796;-70
2021/09/02 06:59:20;;;;;;;8.57;7.50;;;16.50;99.90;;;;;;6153710;23;20447;-69
2021/09/02 07:01:47;;;;;;;8.90;7.60;;;16.50;99.90;;;;;;6153641;23;20541;-70
2021/09/02 07:04:14;;;;;;;8.43;7.23;;;16.60;99.90;;;;;;6153821;23;20728;-70
2021/09/02 07:06:41;;;;;;;8.20;7.07;;;16.80;99.90;;;;;;6154547;23;20429;-70
2021/09/02 07:09:09;;;;;;;8.60;7.40;;;16.90;99.90;;;;;;6154537;23;20419;-71
2021/09/02 07:11:35;;;;;;;9.20;7.10;;;17.10;99.90;;;;;;6153922;23;20454;-71
2021/09/02 07:14:03;;;;;;;7.70;6.90;;;17.10;99.90;;;;;;6154148;23;20422;-70
2021/09/02 07:16:30;;;;;;;8.13;7.33;;;17.20;99.90;;;;;;6153833;23;20698;-70
2021/09/02 07:18:57;;;;;;;7.40;6.67;;;17.30;99.90;;;;;;6153864;23;20576;-70
2021/09/02 07:21:24;;;;;;;7.40;6.30;;;17.40;99.90;;;;;;6153906;23;20442;-70
2021/09/02 07:23:51;;;;;;;10.87;8.60;;;17.50;99.90;;;;;;6153530;23;20510;-70
2021/09/02 07:26:19;;;;;;;8.43;7.23;;;17.60;99.90;;;;;;6154203;23;20423;-70
2021/09/02 07:28:45;;;;;;;9.63;7.40;;;17.70;99.90;;;;;;6153877;23;20455;-70
2021/09/02 07:31:12;;;;;;;10.93;7.43;;;17.70;99.90;;;;;;6153386;23;21003;-70
2021/09/02 07:33:38;;;;;;;13.40;6.70;;;17.80;99.90;;;;;;6153750;23;20923;-70
2021/09/02 07:36:05;;;;;;;8.60;5.93;;;17.90;99.90;;;;;;6155756;23;20766;-68
2021/09/02 07:38:32;;;;;;;7.43;6.63;;;18.00;99.90;;;;;;6155949;23;20446;-68
2021/09/02 07:40:59;;;;;;;8.70;6.60;;;18.10;99.90;;;;;;6155447;23;20893;-68
2021/09/02 07:43:27;;;;;;;7.53;6.83;;;18.10;99.90;;;;;;6155774;23;20454;-68
2021/09/02 07:45:53;;;;;;;10.10;6.70;;;18.10;99.90;;;;;;6155225;23;20438;-68
2021/09/02 07:48:20;;;;;;;8.13;6.50;;;18.20;99.90;;;;;;6155073;23;20418;-68
2021/09/02 07:50:46;;;;;;;9.27;6.53;;;18.20;99.90;;;;;;6156061;23;20501;-68
2021/09/02 07:53:13;;;;;;;14.37;7.30;;;18.40;99.90;;;;;;6155681;23;20422;-68
2021/09/02 07:55:40;;;;;;;12.17;7.03;;;18.40;99.90;;;;;;6155090;23;20943;-68
2021/09/02 07:58:06;;;;;;;11.60;7.17;;;18.40;99.90;;;;;;6155928;23;20442;-68
2021/09/02 08:00:36;;;;;;;9.93;6.90;;;18.30;99.90;;;;;;6155023;23;20532;-68
2021/09/02 08:03:03;;;;;;;6.90;6.30;;;18.40;99.90;;;;;;6155528;23;20418;-68
2021/09/02 08:05:30;;;;;;;7.83;6.83;;;18.40;99.90;;;;;;6156010;23;20426;-68
2021/09/02 08:07:57;;;;;;;7.57;6.87;;;18.60;99.90;;;;;;6155481;23;20434;-68
2021/09/02 08:10:25;;;;;;;8.13;7.27;;;18.70;99.90;;;;;;6155746;23;20423;-68
2021/09/02 08:12:53;;;;;;;11.23;8.07;;;18.70;99.90;;;;;;6155583;23;20741;-68
2021/09/02 08:15:20;;;;;;;8.10;6.93;;;18.70;99.90;;;;;;6155550;23;20497;-68
2021/09/02 08:17:49;;;;;;;13.00;7.60;;;18.80;99.90;;;;;;6154587;23;20501;-68
2021/09/02 08:20:16;;;;;;;8.93;8.03;;;18.70;99.90;;;;;;6155837;23;20422;-68
2021/09/02 08:22:43;;;;;;;13.70;8.60;;;18.60;99.90;;;;;;6155118;23;20917;-68
2021/09/02 08:25:11;;;;;;;14.13;7.87;;;18.60;99.90;;;;;;6155850;23;20429;-68
2021/09/02 08:27:39;;;;;;;9.03;8.13;;;18.70;99.90;;;;;;6155310;23;20948;-69
2021/09/02 08:30:08;;;;;;;11.93;8.67;;;18.90;99.90;;;;;;6155077;23;20488;-68
2021/09/02 08:32:35;;;;;;;10.70;8.50;;;18.90;99.90;;;;;;6155299;23;20549;-68
2021/09/02 08:35:04;;;;;;;16.97;9.30;;;18.90;99.90;;;;;;6155770;23;20423;-69
2021/09/02 08:37:30;;;;;;;10.40;9.33;;;18.80;99.90;;;;;;6155186;23;20422;-69
2021/09/02 08:39:57;;;;;;;11.57;9.00;;;18.80;99.90;;;;;;6155718;23;20418;-69
2021/09/02 08:42:24;;;;;;;12.47;9.00;;;18.80;99.90;;;;;;6155519;23;20504;-69
2021/09/02 08:44:50;;;;;;;10.17;8.50;;;18.80;99.90;;;;;;6155667;23;20426;-69
2021/09/02 08:47:20;;;;;;;10.07;8.37;;;18.80;99.90;;;;;;6155314;23;20427;-68
2021/09/02 08:49:47;;;;;;;8.50;7.80;;;19.00;99.90;;;;;;6154601;23;20466;-69
2021/09/02 08:52:16;;;;;;;11.87;8.27;;;19.10;99.90;;;;;;6155358;23;20499;-69
2021/09/02 08:54:43;;;;;;;8.60;7.80;;;19.20;99.90;;;;;;6155420;23;20474;-69
2021/09/02 08:57:09;;;;;;;8.43;6.30;;;19.20;99.90;;;;;;6155577;23;20423;-68
2021/09/02 08:59:36;;;;;;;13.03;7.03;;;19.10;99.90;;;;;;6155345;23;20442;-68
2021/09/02 09:02:21;;;;;;;8.33;6.53;;;19.10;99.90;;;;;;6154159;23;20775;-70
2021/09/02 09:04:59;;;;;;;12.20;7.87;;;19.20;99.90;;;;;;6155307;23;20525;-69
2021/09/02 09:07:30;;;;;;;8.50;6.77;;;19.30;99.90;;;;;;6155498;23;20461;-67
2021/09/02 09:09:57;;;;;;;8.13;7.33;;;19.50;99.90;;;;;;6155427;23;20407;-70
2021/09/02 09:12:35;;;;;;;10.27;7.03;;;19.60;99.90;;;;;;6154741;23;20442;-70
2021/09/02 09:15:03;;;;;;;7.60;6.90;;;19.80;99.90;;;;;;6154410;23;20438;-70
2021/09/02 09:17:30;;;;;;;9.43;7.60;;;19.80;99.90;;;;;;6155487;23;20434;-69
2021/09/02 09:19:57;;;;;;;11.30;7.30;;;19.80;99.90;;;;;;6155353;23;20504;-69
2021/09/02 09:22:26;;;;;;;8.27;7.53;;;19.80;99.90;;;;;;6154995;23;20516;-69
2021/09/02 09:24:56;;;;;;;7.90;7.40;;;19.90;99.90;;;;;;6155191;23;20422;-66
2021/09/02 09:27:24;;;;;;;8.90;7.57;;;19.90;99.90;;;;;;6154969;23;20469;-67
2021/09/02 09:30:15;;;;;;;7.07;6.40;;;19.90;99.90;;;;;;6154944;23;20458;-67
2021/09/02 09:32:44;;;;;;;6.83;5.97;;;20.00;99.90;;;;;;6154571;23;20411;-69
2021/09/02 09:35:13;;;;;;;13.27;7.37;;;20.30;99.90;;;;;;6154947;23;20881;-69
2021/09/02 09:37:40;;;;;;;7.37;6.67;;;20.50;99.90;;;;;;6154539;23;20439;-69
2021/09/02 09:40:17;;;;;;;8.83;7.10;;;20.60;99.90;;;;;;6155093;23;20430;-69
2021/09/02 09:43:04;;;;;;;7.80;7.00;;;20.70;99.90;;;;;;6155075;23;20411;-69
2021/09/02 09:45:42;;;;;;;8.00;5.97;;;20.70;99.90;;;;;;6154881;23;20461;-69
2021/09/02 09:48:33;;;;;;;8.53;7.23;;;20.70;99.90;;;;;;6154724;23;20407;-69
2021/09/02 09:51:13;;;;;;;7.07;6.33;;;20.70;99.90;;;;;;6155274;23;20451;-70
2021/09/02 09:53:41;;;;;;;8.73;6.50;;;20.70;99.90;;;;;;6154831;23;20410;-69
2021/09/02 09:56:10;;;;;;;7.93;7.23;;;20.70;99.90;;;;;;6154933;23;20500;-70
2021/09/02 09:58:37;;;;;;;9.70;7.33;;;20.70;99.90;;;;;;6154976;23;20442;-70
2021/09/02 10:01:07;;;;;;;9.37;7.60;;;20.80;99.90;;;;;;6154428;23;20517;-70
2021/09/02 10:03:35;;;;;;;9.30;7.57;;;20.80;99.90;;;;;;6154328;23;20422;-69
2021/09/02 10:06:04;;;;;;;7.57;6.83;;;20.80;99.90;;;;;;6155106;23;20465;-70
2021/09/02 10:08:34;;;;;;;7.73;6.83;;;20.80;99.90;;;;;;6154982;23;20426;-69
2021/09/02 10:11:02;;;;;;;9.13;7.10;;;20.80;99.90;;;;;;6154965;23;20517;-70
2021/09/02 10:13:31;;;;;;;7.60;6.90;;;20.70;99.90;;;;;;6154188;23;21138;-70
2021/09/02 10:15:58;;;;;;;8.20;7.50;;;20.70;99.90;;;;;;6154423;23;20430;-70
2021/09/02 10:18:26;;;;;;;7.07;6.40;;;20.80;99.90;;;;;;6154199;23;20446;-70
2021/09/02 10:20:53;;;;;;;8.03;6.60;;;20.90;99.90;;;;;;6155008;23;20443;-70
2021/09/02 10:23:24;;;;;;;6.73;6.23;;;21.10;99.90;;;;;;6154325;23;20427;-70
2021/09/02 10:25:51;;;;;;;9.00;7.30;;;21.10;99.90;;;;;;6154445;23;20422;-70
2021/09/02 10:28:24;;;;;;;9.20;7.47;;;21.00;99.90;;;;;;6154628;23;20418;-70
2021/09/02 10:30:55;;;;;;;8.40;7.20;;;21.00;99.90;;;;;;6154343;23;20556;-69
2021/09/02 10:33:37;;;;;;;9.53;8.07;;;20.90;99.90;;;;;;6153649;23;20406;-70
2021/09/02 10:36:43;;;;;;;10.70;7.43;;;20.80;99.90;;;;;;6154817;23;20418;-70
2021/09/02 10:39:10;;;;;;;8.13;7.33;;;20.80;99.90;;;;;;6154780;23;20431;-70
2021/09/02 10:41:50;;;;;;;7.57;6.80;;;20.60;99.90;;;;;;6154307;23;20972;-70
2021/09/02 10:44:19;;;;;;;9.50;7.00;;;20.50;99.90;;;;;;6154620;23;20422;-70
2021/09/02 10:46:49;;;;;;;8.00;7.20;;;20.50;99.90;;;;;;6154269;23;20430;-70
2021/09/02 10:49:27;;;;;;;6.90;6.30;;;20.50;99.90;;;;;;6154252;23;20528;-70
2021/09/02 10:51:56;;;;;;;8.07;7.27;;;20.40;99.90;;;;;;6154102;23;20956;-70
2021/09/02 10:54:28;;;;;;;8.37;7.53;;;20.40;99.90;;;;;;6154102;23;20450;-70
2021/09/02 10:57:01;;;;;;;9.57;7.30;;;20.50;99.90;;;;;;6153710;23;20928;-70
2021/09/02 10:59:44;;;;;;;8.97;8.07;;;20.50;99.90;;;;;;6154020;23;20920;-69
2021/09/02 11:02:43;;;;;;;8.10;6.93;;;20.50;99.90;;;;;;6153174;23;20482;-70
2021/09/02 11:05:12;;;;;;;8.93;7.50;;;20.60;99.90;;;;;;6154111;23;20407;-70
2021/09/02 11:07:40;;;;;;;7.37;6.77;;;20.60;99.90;;;;;;6154127;23;20426;-69
2021/09/02 11:10:09;;;;;;;7.63;6.90;;;20.60;99.90;;;;;;6156492;23;20550;-71
2021/09/02 11:12:36;;;;;;;8.03;7.23;;;20.80;99.90;;;;;;6155928;23;20901;-70
2021/09/02 11:15:03;;;;;;;7.80;7.13;;;20.70;99.90;;;;;;6155756;23;20422;-70
2021/09/02 11:17:29;;;;;;;8.70;7.33;;;20.50;99.90;;;;;;6156129;23;20422;-70
2021/09/02 11:19:57;;;;;;;10.47;7.83;;;20.50;99.90;;;;;;6155699;23;20442;-70
2021/09/02 11:22:24;;;;;;;8.93;6.33;;;20.40;99.90;;;;;;6156381;23;20444;-70
2021/09/02 11:24:53;;;;;;;7.23;6.63;;;20.50;99.90;;;;;;6155653;23;20423;-70
2021/09/02 11:27:28;;;;;;;7.83;7.13;;;20.50;99.90;;;;;;6156421;23;20426;-70
2021/09/02 11:30:11;;;;;;;8.60;7.80;;;20.50;99.90;;;;;;6156064;23;20406;-70
2021/09/02 11:32:38;;;;;;;8.63;7.77;;;20.50;99.90;;;;;;6155624;23;20473;-69
2021/09/02 11:35:07;;;;;;;8.40;6.90;;;20.50;99.90;;;;;;6156330;23;20422;-68
2021/09/02 11:37:38;;;;;;;8.40;7.57;;;20.50;99.90;;;;;;6156028;23;20422;-69
2021/09/02 11:40:07;;;;;;;9.67;8.77;;;20.50;99.90;;;;;;6156359;23;20450;-69
2021/09/02 11:42:34;;;;;;;12.50;9.50;;;20.40;99.90;;;;;;6156350;23;20426;-71
2021/09/02 11:45:01;;;;;;;11.07;10.03;;;20.30;99.90;;;;;;6155579;23;20426;-71
2021/09/02 11:47:34;;;;;;;11.10;10.10;;;20.20;99.90;;;;;;6156811;23;20508;-71
2021/09/02 11:50:01;;;;;;;12.20;9.13;;;20.30;99.90;;;;;;6155756;23;20861;-69
2021/09/02 11:52:39;;;;;;;15.23;9.53;;;20.30;99.90;;;;;;6156175;23;20473;-72
2021/09/02 11:55:07;;;;;;;9.97;9.10;;;20.40;99.90;;;;;;6155972;23;20892;-71
2021/09/02 11:57:34;;;;;;;10.87;9.93;;;20.50;99.90;;;;;;6156222;23;20422;-71
2021/09/02 12:00:00;;;;;;;9.27;8.43;;;20.60;99.90;;;;;;6155395;23;21026;-71
2021/09/02 12:02:27;;;;;;;8.40;7.80;;;20.60;99.90;;;;;;6161441;23;20954;-68
2021/09/02 12:04:54;;;;;;;10.17;9.10;;;20.60;99.90;;;;;;6155377;23;20426;-69
2021/09/02 12:07:21;;;;;;;9.63;8.40;;;20.70;99.90;;;;;;6156093;23;20443;-68
2021/09/02 12:09:50;;;;;;;11.00;9.47;;;20.80;99.90;;;;;;6155980;23;20450;-69
2021/09/02 12:12:28;;;;;;;10.37;8.90;;;20.80;99.90;;;;;;6155601;23;20854;-68
2021/09/02 12:14:54;;;;;;;13.53;9.17;;;20.80;99.90;;;;;;6155850;23;20415;-70
2021/09/02 12:17:32;;;;;;;9.53;8.43;;;20.90;99.90;;;;;;6155972;23;20473;-68
2021/09/02 12:20:00;;;;;;;14.30;10.07;;;20.90;99.90;;;;;;6155530;23;20431;-68
2021/09/02 12:22:32;;;;;;;10.67;9.20;;;20.70;99.90;;;;;;6155260;23;21004;-68
2021/09/02 12:25:12;;;;;;;10.33;9.23;;;20.60;99.90;;;;;;6155459;23;20791;-68
2021/09/02 12:27:44;;;;;;;11.23;9.43;;;20.60;99.90;;;;;;6155450;23;20814;-68
2021/09/02 12:30:11;;;;;;;9.57;8.67;;;20.70;99.90;;;;;;6155094;23;20422;-68
2021/09/02 12:32:38;;;;;;;12.57;9.03;;;20.60;99.90;;;;;;6154961;23;20481;-69
2021/09/02 12:35:12;;;;;;;8.97;8.23;;;20.40;99.90;;;;;;6155050;23;20442;-68
2021/09/02 12:37:39;;;;;;;10.63;8.60;;;20.50;99.90;;;;;;6155945;23;20407;-70
2021/09/02 12:40:16;;;;;;;12.50;9.77;;;20.70;99.90;;;;;;6155286;23;20447;-70
2021/09/02 12:42:44;;;;;;;10.40;9.40;;;20.90;99.90;;;;;;6155731;23;20411;-70
2021/09/02 12:45:17;;;;;;;14.97;9.50;;;21.00;99.90;;;;;;6155483;23;20481;-69
2021/09/02 12:47:44;;;;;;;9.60;8.80;;;21.00;99.90;;;;;;6155277;23;20433;-69
2021/09/02 12:50:16;;;;;;;11.30;10.20;;;21.00;99.90;;;;;;6155686;23;20493;-70
2021/09/02 12:52:42;;;;;;;12.80;9.57;;;21.00;99.90;;;;;;6155695;23;20485;-70
2021/09/02 12:55:16;;;;;;;11.70;9.57;;;21.10;99.90;;;;;;6156004;23;20481;-70
2021/09/02 12:57:44;;;;;;;12.73;9.90;;;21.10;99.90;;;;;;6155229;23;20470;-69
2021/09/02 13:00:13;;;;;;;10.63;8.90;;;21.00;99.90;;;;;;6154644;23;20845;-70
2021/09/02 13:02:40;;;;;;;10.93;9.50;;;21.10;99.90;;;;;;6154390;23;20461;-70
2021/09/02 13:05:08;;;;;;;9.70;8.90;;;21.00;99.90;;;;;;6155776;23;20802;-69
2021/09/02 13:07:35;;;;;;;14.87;9.93;;;21.00;99.90;;;;;;6155315;23;20422;-70
2021/09/02 13:10:02;;;;;;;9.90;8.30;;;21.00;99.90;;;;;;6155605;23;20861;-70
2021/09/02 13:12:30;;;;;;;12.33;10.00;;;20.80;99.90;;;;;;6154528;23;20842;-70
2021/09/02 13:14:57;;;;;;;9.77;8.87;;;20.60;99.90;;;;;;6155302;23;20428;-68
2021/09/02 13:17:23;;;;;;;10.57;9.53;;;20.60;99.90;;;;;;6155612;23;20422;-68
2021/09/02 13:19:50;;;;;;;10.17;9.27;;;20.70;99.90;;;;;;6154808;23;20454;-69
2021/09/02 13:22:17;;;;;;;9.53;8.73;;;20.70;99.90;;;;;;6155319;23;20501;-69
2021/09/02 13:24:43;;;;;;;11.00;10.10;;;20.70;99.90;;;;;;6155179;23;20422;-69
2021/09/02 13:27:10;;;;;;;11.43;9.50;;;20.60;99.90;;;;;;6155181;23;20422;-69
2021/09/02 13:29:38;;;;;;;12.00;9.20;;;20.50;99.90;;;;;;6154581;23;20415;-69
2021/09/02 13:32:05;;;;;;;9.77;8.87;;;20.60;99.90;;;;;;6154121;23;20809;-69
2021/09/02 13:34:32;;;;;;;14.23;9.53;;;20.70;99.90;;;;;;6154770;23;20423;-70
2021/09/02 13:36:59;;;;;;;10.00;9.00;;;20.80;99.90;;;;;;6155117;23;20488;-70
2021/09/02 13:39:25;;;;;;;10.63;9.63;;;20.70;99.90;;;;;;6155001;23;20442;-69
2021/09/02 13:41:52;;;;;;;18.60;9.00;;;20.50;99.90;;;;;;6154945;23;20443;-69
2021/09/02 13:44:19;;;;;;;10.37;8.93;;;20.60;99.90;;;;;;6154675;23;20429;-70
2021/09/02 13:46:47;;;;;;;11.43;9.00;;;20.70;99.90;;;;;;6154559;23;20422;-70
2021/09/02 13:49:13;;;;;;;11.77;9.00;;;20.70;99.90;;;;;;6154436;23;20789;-69
2021/09/02 13:51:40;;;;;;;8.63;7.63;;;20.70;99.90;;;;;;6154995;23;20810;-70
2021/09/02 13:54:07;;;;;;;9.23;8.40;;;20.70;99.90;;;;;;6154268;23;20973;-70
2021/09/02 13:56:45;;;;;;;9.17;8.07;;;20.70;99.90;;;;;;6159462;23;20805;-71
2021/09/02 13:59:12;;;;;;;9.90;8.40;;;20.80;99.90;;;;;;6154383;23;20465;-68
2021/09/02 14:01:40;;;;;;;9.80;7.60;;;20.70;99.90;;;;;;6153560;23;20502;-68
2021/09/02 14:04:08;;;;;;;8.90;8.03;;;20.80;99.90;;;;;;6153727;23;20510;-68
2021/09/02 14:06:35;;;;;;;12.43;9.00;;;20.80;99.90;;;;;;6154766;23;20429;-68
2021/09/02 14:09:02;;;;;;;8.33;7.63;;;20.80;99.90;;;;;;6154398;23;20438;-68
2021/09/02 14:11:29;;;;;;;8.50;7.70;;;20.70;99.90;;;;;;6154409;23;20828;-68
2021/09/02 14:13:56;;;;;;;7.77;7.10;;;20.70;99.90;;;;;;6154073;23;20423;-67
2021/09/02 14:16:23;;;;;;;8.97;7.57;;;20.70;99.90;;;;;;6153759;23;20805;-67
2021/09/02 14:18:51;;;;;;;9.93;7.90;;;20.80;99.90;;;;;;6154922;23;20803;-68
2021/09/02 14:21:19;;;;;;;9.57;7.17;;;20.80;99.90;;;;;;6154023;23;20509;-69
2021/09/02 14:23:46;;;;;;;10.67;8.07;;;20.80;99.90;;;;;;6153951;23;20885;-68
2021/09/02 14:26:13;;;;;;;8.50;7.63;;;20.70;99.90;;;;;;6155070;23;20423;-68
2021/09/02 14:28:39;;;;;;;7.47;6.70;;;20.70;99.90;;;;;;6153933;23;20874;-68
2021/09/02 14:31:06;;;;;;;8.10;7.33;;;20.60;99.90;;;;;;6153886;23;20442;-68
2021/09/02 14:33:32;;;;;;;7.90;7.13;;;20.60;99.90;;;;;;6153564;23;20423;-68
2021/09/02 14:35:59;;;;;;;8.20;7.37;;;20.60;99.90;;;;;;6154565;23;20493;-68
2021/09/02 14:38:27;;;;;;;9.40;6.90;;;20.40;99.90;;;;;;6154474;23;20422;-68
2021/09/02 14:40:54;;;;;;;10.40;8.00;;;20.30;99.90;;;;;;6154341;23;20455;-69
2021/09/02 14:43:20;;;;;;;7.87;7.07;;;20.20;99.90;;;;;;6153775;23;20422;-68
2021/09/02 14:45:47;;;;;;;10.10;8.00;;;20.20;99.90;;;;;;6154046;23;20724;-68
2021/09/02 14:48:14;;;;;;;10.80;6.80;;;20.20;99.90;;;;;;6153853;23;20496;-68
2021/09/02 14:50:40;;;;;;;8.10;7.40;;;20.20;99.90;;;;;;6154280;23;20446;-68
2021/09/02 14:53:07;;;;;;;8.97;6.70;;;20.20;99.90;;;;;;6153651;23;20909;-68
2021/09/02 14:55:35;;;;;;;9.17;8.20;;;20.20;99.90;;;;;;6154520;23;20454;-68
2021/09/02 14:58:02;;;;;;;8.93;7.03;;;20.20;99.90;;;;;;6154412;23;20506;-69
2021/09/02 15:00:29;;;;;;;9.07;6.97;;;20.20;99.90;;;;;;6153682;23;20640;-68
2021/09/02 15:02:56;;;;;;;9.33;6.50;;;20.20;99.90;;;;;;6153155;23;20913;-70
2021/09/02 15:05:22;;;;;;;9.70;6.90;;;20.20;99.90;;;;;;6153964;23;20439;-68
2021/09/02 15:07:49;;;;;;;7.80;7.10;;;20.30;99.90;;;;;;6154764;23;20679;-68
2021/09/02 15:10:17;;;;;;;17.93;8.53;;;20.20;99.90;;;;;;6154396;23;20446;-68
2021/09/02 15:12:45;;;;;;;10.50;7.93;;;20.10;99.90;;;;;;6153596;23;20517;-68
2021/09/02 15:15:12;;;;;;;10.67;8.00;;;20.10;99.90;;;;;;6153694;23;20481;-68
2021/09/02 15:17:39;;;;;;;7.80;7.00;;;20.10;99.90;;;;;;6152997;23;20481;-68
2021/09/02 15:20:07;;;;;;;8.93;8.13;;;20.10;99.90;;;;;;6154306;23;20497;-69
2021/09/02 15:22:34;;;;;;;7.63;7.03;;;20.00;99.90;;;;;;6153683;23;20904;-68
2021/09/02 15:25:01;;;;;;;9.23;7.70;;;20.00;99.90;;;;;;6154143;23;20422;-68
2021/09/02 15:27:27;;;;;;;10.60;7.90;;;20.00;99.90;;;;;;6154332;23;20797;-68
2021/09/02 15:29:56;;;;;;;10.83;7.93;;;20.00;99.90;;;;;;6153905;23;20783;-69
2021/09/02 15:32:23;;;;;;;9.30;7.13;;;20.00;99.90;;;;;;6153136;23;20991;-68
2021/09/02 15:34:49;;;;;;;7.80;7.10;;;19.90;99.90;;;;;;6153763;23;20758;-68
2021/09/02 15:37:16;;;;;;;8.90;7.40;;;19.90;99.90;;;;;;6154353;23;20711;-68
2021/09/02 15:39:43;;;;;;;9.03;8.23;;;19.90;99.90;;;;;;6154145;23;20481;-68
2021/09/02 15:42:10;;;;;;;8.43;7.63;;;19.90;99.90;;;;;;6153890;23;20450;-70
2021/09/02 15:44:36;;;;;;;8.97;8.20;;;19.90;99.90;;;;;;6153352;23;20928;-71
2021/09/02 15:47:04;;;;;;;8.53;7.80;;;19.90;99.90;;;;;;6153411;23;20481;-70
2021/09/02 15:49:31;;;;;;;8.50;7.53;;;19.90;99.90;;;;;;6153266;23;20959;-71
2021/09/02 15:51:58;;;;;;;8.83;7.57;;;19.90;99.90;;;;;;6153947;23;20442;-70
2021/09/02 15:54:24;;;;;;;10.90;8.83;;;19.90;99.90;;;;;;6153986;23;20730;-70
2021/09/02 15:56:51;;;;;;;9.40;7.17;;;19.80;99.90;;;;;;6155724;23;20489;-70
2021/09/02 15:59:18;;;;;;;8.80;8.10;;;19.80;99.90;;;;;;6155877;23;20500;-68
2021/09/02 16:01:44;;;;;;;9.57;8.10;;;19.80;99.90;;;;;;6154886;23;20790;-68
2021/09/02 16:04:12;;;;;;;8.97;8.10;;;19.80;99.90;;;;;;6154359;23;20956;-68
2021/09/02 16:06:39;;;;;;;8.10;7.33;;;19.70;99.90;;;;;;6155945;23;20456;-68
2021/09/02 16:09:06;;;;;;;9.50;7.67;;;19.70;99.90;;;;;;6155542;23;20422;-68
2021/09/02 16:11:33;;;;;;;9.17;8.37;;;19.70;99.90;;;;;;6155425;23;20531;-68
2021/09/02 16:13:59;;;;;;;8.43;7.67;;;19.60;99.90;;;;;;6154920;23;20423;-68
2021/09/02 16:16:26;;;;;;;10.57;7.83;;;19.60;99.90;;;;;;6154738;23;20477;-68
2021/09/02 16:18:53;;;;;;;43.83;13.20;;;19.60;99.90;;;;;;6155429;23;20481;-68
2021/09/02 16:21:21;;;;;;;8.80;7.93;;;19.60;99.90;;;;;;6155352;23;20967;-68
2021/09/02 16:23:48;;;;;;;8.77;8.07;;;19.60;99.90;;;;;;6155164;23;20525;-69
2021/09/02 16:26:15;;;;;;;9.30;8.00;;;19.60;99.90;;;;;;6155228;23;20501;-68
2021/09/02 16:28:43;;;;;;;10.60;9.00;;;19.50;99.90;;;;;;6155642;23;20423;-68
2021/09/02 16:31:10;;;;;;;10.77;8.23;;;19.50;99.90;;;;;;6154886;23;20439;-68
2021/09/02 16:33:36;;;;;;;10.00;9.13;;;19.60;99.90;;;;;;6154514;23;20934;-69
2021/09/02 16:36:04;;;;;;;9.10;8.40;;;19.50;99.90;;;;;;6155977;23;20734;-68
2021/09/02 16:38:32;;;;;;;10.50;9.40;;;19.50;99.90;;;;;;6154897;23;20442;-69
2021/09/02 16:40:58;;;;;;;8.97;7.93;;;19.50;99.90;;;;;;6155689;23;20454;-68
2021/09/02 16:43:25;;;;;;;10.27;9.43;;;19.40;99.90;;;;;;6155229;23;20473;-68
2021/09/02 16:45:52;;;;;;;11.20;10.13;;;19.40;99.90;;;;;;6155461;23;20530;-68
2021/09/02 16:48:19;;;;;;;9.00;8.20;;;19.30;99.90;;;;;;6154628;23;20497;-68